Terminal Aerodrome Forecast
Issued by NWS

Home | Current Version | Previous Version | Text Only | Print | Product List | Glossary On
Versions: 1 2 3 4 5 6 7 8 9 10 11 12 13 14 15 16 17 18 19 20 21 22 23 24 25 26 27 28
986
FTUS41 KBUF 072335
TAFIAG
TAF
KIAG 072335Z 0800/0824 23015G23KT P6SM SCT120
     FM080500 25012KT P6SM BKN080
     FM080900 25012G18KT P6SM BKN040
     FM081500 25018G28KT P6SM BKN080=

USA.gov is the U.S. government's official web portal to all federal, state and local government web resources and services.